sensor_id;sensor_type;location;lat;lon;timestamp;temperature;humidity
546;DHT22;259;53.304;9.816;2023-04-16T00:02:17;13.40;72.20
546;DHT22;259;53.304;9.816;2023-04-16T00:04:45;13.40;72.10
546;DHT22;259;53.304;9.816;2023-04-16T00:07:11;13.40;72.20
546;DHT22;259;53.304;9.816;2023-04-16T00:09:37;13.40;72.20
546;DHT22;259;53.304;9.816;2023-04-16T00:12:03;13.30;72.10
546;DHT22;259;53.304;9.816;2023-04-16T00:14:29;13.30;72.00
546;DHT22;259;53.304;9.816;2023-04-16T00:16:55;13.30;72.10
546;DHT22;259;53.304;9.816;2023-04-16T00:19:20;13.30;72.10
546;DHT22;259;53.304;9.816;2023-04-16T00:21:46;13.30;72.10
546;DHT22;259;53.304;9.816;2023-04-16T00:24:12;13.30;72.10
546;DHT22;259;53.304;9.816;2023-04-16T00:26:38;13.30;72.10
546;DHT22;259;53.304;9.816;2023-04-16T00:29:05;13.30;72.10
546;DHT22;259;53.304;9.816;2023-04-16T00:31:32;13.30;72.10
546;DHT22;259;53.304;9.816;2023-04-16T00:33:58;13.30;72.30
546;DHT22;259;53.304;9.816;2023-04-16T00:36:25;13.30;72.20
546;DHT22;259;53.304;9.816;2023-04-16T00:38:55;13.20;72.10
546;DHT22;259;53.304;9.816;2023-04-16T00:41:21;13.20;72.10
546;DHT22;259;53.304;9.816;2023-04-16T00:43:51;13.20;72.10
546;DHT22;259;53.304;9.816;2023-04-16T00:46:18;13.20;72.20
546;DHT22;259;53.304;9.816;2023-04-16T00:48:45;13.20;72.20
546;DHT22;259;53.304;9.816;2023-04-16T00:51:11;13.20;72.20
546;DHT22;259;53.304;9.816;2023-04-16T00:53:37;13.20;72.10
546;DHT22;259;53.304;9.816;2023-04-16T00:56:04;13.20;72.20
546;DHT22;259;53.304;9.816;2023-04-16T00:58:32;13.20;72.20
546;DHT22;259;53.304;9.816;2023-04-16T01:01:00;13.20;72.30
546;DHT22;259;53.304;9.816;2023-04-16T01:03:43;13.20;72.30
546;DHT22;259;53.304;9.816;2023-04-16T01:06:09;13.20;72.40
546;DHT22;259;53.304;9.816;2023-04-16T01:08:35;13.20;72.40
546;DHT22;259;53.304;9.816;2023-04-16T01:11:01;13.10;72.20
546;DHT22;259;53.304;9.816;2023-04-16T01:13:27;13.10;72.20
546;DHT22;259;53.304;9.816;2023-04-16T01:15:53;13.10;72.30
546;DHT22;259;53.304;9.816;2023-04-16T01:18:20;13.10;72.20
546;DHT22;259;53.304;9.816;2023-04-16T01:20:48;13.10;72.30
546;DHT22;259;53.304;9.816;2023-04-16T01:23:15;13.10;72.30
546;DHT22;259;53.304;9.816;2023-04-16T01:25:43;13.10;73.00
546;DHT22;259;53.304;9.816;2023-04-16T01:28:09;13.10;72.30
546;DHT22;259;53.304;9.816;2023-04-16T01:30:35;13.10;72.40
546;DHT22;259;53.304;9.816;2023-04-16T01:33:01;13.00;72.10
546;DHT22;259;53.304;9.816;2023-04-16T01:35:27;13.00;72.20
546;DHT22;259;53.304;9.816;2023-04-16T01:37:53;13.00;72.20
546;DHT22;259;53.304;9.816;2023-04-16T01:40:18;13.10;72.30
546;DHT22;259;53.304;9.816;2023-04-16T01:42:44;13.00;72.30
546;DHT22;259;53.304;9.816;2023-04-16T01:45:10;13.00;73.10
546;DHT22;259;53.304;9.816;2023-04-16T01:47:36;13.00;72.30
546;DHT22;259;53.304;9.816;2023-04-16T01:50:03;13.00;72.30
546;DHT22;259;53.304;9.816;2023-04-16T01:52:29;13.00;72.30
546;DHT22;259;53.304;9.816;2023-04-16T01:54:54;13.00;72.40
546;DHT22;259;53.304;9.816;2023-04-16T01:57:20;13.00;72.30
546;DHT22;259;53.304;9.816;2023-04-16T01:59:46;13.00;72.30
546;DHT22;259;53.304;9.816;2023-04-16T02:02:14;13.00;72.40
546;DHT22;259;53.304;9.816;2023-04-16T02:04:42;12.90;72.30
546;DHT22;259;53.304;9.816;2023-04-16T02:07:09;12.90;72.20
546;DHT22;259;53.304;9.816;2023-04-16T02:09:36;12.90;72.20
546;DHT22;259;53.304;9.816;2023-04-16T02:12:03;12.90;72.40
546;DHT22;259;53.304;9.816;2023-04-16T02:14:30;12.90;72.40
546;DHT22;259;53.304;9.816;2023-04-16T02:16:56;12.90;72.30
546;DHT22;259;53.304;9.816;2023-04-16T02:19:22;12.90;72.30
546;DHT22;259;53.304;9.816;2023-04-16T02:21:50;12.90;72.30
546;DHT22;259;53.304;9.816;2023-04-16T02:24:16;12.90;72.30
546;DHT22;259;53.304;9.816;2023-04-16T02:26:42;12.90;72.30
546;DHT22;259;53.304;9.816;2023-04-16T02:29:07;12.90;72.40
546;DHT22;259;53.304;9.816;2023-04-16T02:31:33;12.90;72.50
546;DHT22;259;53.304;9.816;2023-04-16T02:33:59;12.80;72.30
546;DHT22;259;53.304;9.816;2023-04-16T02:36:25;12.80;72.30
546;DHT22;259;53.304;9.816;2023-04-16T02:38:51;12.90;72.30
546;DHT22;259;53.304;9.816;2023-04-16T02:41:17;12.80;72.20
546;DHT22;259;53.304;9.816;2023-04-16T02:43:43;12.80;72.30
546;DHT22;259;53.304;9.816;2023-04-16T02:46:09;12.80;72.30
546;DHT22;259;53.304;9.816;2023-04-16T02:48:34;12.80;72.40
546;DHT22;259;53.304;9.816;2023-04-16T02:51:00;12.80;72.60
546;DHT22;259;53.304;9.816;2023-04-16T02:53:26;12.80;72.60
546;DHT22;259;53.304;9.816;2023-04-16T02:55:53;12.70;72.60
546;DHT22;259;53.304;9.816;2023-04-16T02:58:20;12.70;72.70
546;DHT22;259;53.304;9.816;2023-04-16T03:00:46;12.80;72.90
546;DHT22;259;53.304;9.816;2023-04-16T03:03:12;12.70;72.80
546;DHT22;259;53.304;9.816;2023-04-16T03:05:38;12.70;72.80
546;DHT22;259;53.304;9.816;2023-04-16T03:08:04;12.70;72.90
546;DHT22;259;53.304;9.816;2023-04-16T03:10:30;12.70;72.80
546;DHT22;259;53.304;9.816;2023-04-16T03:12:56;12.70;72.70
546;DHT22;259;53.304;9.816;2023-04-16T03:15:22;12.70;72.70
546;DHT22;259;53.304;9.816;2023-04-16T03:17:48;12.70;72.70
546;DHT22;259;53.304;9.816;2023-04-16T03:20:14;12.70;72.70
546;DHT22;259;53.304;9.816;2023-04-16T03:22:41;12.70;72.60
546;DHT22;259;53.304;9.816;2023-04-16T03:25:07;12.70;72.60
546;DHT22;259;53.304;9.816;2023-04-16T03:27:34;12.70;72.60
546;DHT22;259;53.304;9.816;2023-04-16T03:30:00;12.70;72.60
546;DHT22;259;53.304;9.816;2023-04-16T03:32:26;12.70;72.60
546;DHT22;259;53.304;9.816;2023-04-16T03:34:52;12.60;72.50
546;DHT22;259;53.304;9.816;2023-04-16T03:37:17;12.60;72.30
546;DHT22;259;53.304;9.816;2023-04-16T03:39:43;12.70;72.50
546;DHT22;259;53.304;9.816;2023-04-16T03:42:09;12.60;72.30
546;DHT22;259;53.304;9.816;2023-04-16T03:44:34;12.60;72.40
546;DHT22;259;53.304;9.816;2023-04-16T03:47:00;12.60;72.40
546;DHT22;259;53.304;9.816;2023-04-16T03:49:26;12.60;72.40
546;DHT22;259;53.304;9.816;2023-04-16T03:51:51;12.60;72.40
546;DHT22;259;53.304;9.816;2023-04-16T03:54:17;12.60;72.40
546;DHT22;259;53.304;9.816;2023-04-16T03:56:43;12.60;72.40
546;DHT22;259;53.304;9.816;2023-04-16T03:59:09;12.60;72.30
546;DHT22;259;53.304;9.816;2023-04-16T04:01:34;12.60;72.40
546;DHT22;259;53.304;9.816;2023-04-16T04:04:00;12.60;72.50
546;DHT22;259;53.304;9.816;2023-04-16T04:06:26;12.50;72.40
546;DHT22;259;53.304;9.816;2023-04-16T04:08:52;12.60;72.40
546;DHT22;259;53.304;9.816;2023-04-16T04:11:18;12.60;72.50
546;DHT22;259;53.304;9.816;2023-04-16T04:13:44;12.50;72.30
546;DHT22;259;53.304;9.816;2023-04-16T04:16:10;12.50;72.40
546;DHT22;259;53.304;9.816;2023-04-16T04:18:36;12.50;72.50
546;DHT22;259;53.304;9.816;2023-04-16T04:21:06;12.50;72.40
546;DHT22;259;53.304;9.816;2023-04-16T04:23:32;12.50;72.30
546;DHT22;259;53.304;9.816;2023-04-16T04:25:58;12.50;72.40
546;DHT22;259;53.304;9.816;2023-04-16T04:28:24;12.50;72.40
546;DHT22;259;53.304;9.816;2023-04-16T04:30:49;12.50;72.40
546;DHT22;259;53.304;9.816;2023-04-16T04:33:15;12.50;72.30
546;DHT22;259;53.304;9.816;2023-04-16T04:35:41;12.50;72.50
546;DHT22;259;53.304;9.816;2023-04-16T04:38:06;12.50;72.50
546;DHT22;259;53.304;9.816;2023-04-16T04:40:32;12.50;72.50
546;DHT22;259;53.304;9.816;2023-04-16T04:42:58;12.50;72.50
546;DHT22;259;53.304;9.816;2023-04-16T04:45:23;12.40;72.30
546;DHT22;259;53.304;9.816;2023-04-16T04:47:52;12.40;72.20
546;DHT22;259;53.304;9.816;2023-04-16T04:50:18;12.40;72.30
546;DHT22;259;53.304;9.816;2023-04-16T04:52:44;12.40;72.50
546;DHT22;259;53.304;9.816;2023-04-16T04:55:09;12.40;72.30
546;DHT22;259;53.304;9.816;2023-04-16T04:57:35;12.40;72.20
546;DHT22;259;53.304;9.816;2023-04-16T05:00:01;12.40;72.30
546;DHT22;259;53.304;9.816;2023-04-16T05:02:28;12.40;72.40
546;DHT22;259;53.304;9.816;2023-04-16T05:04:54;12.40;72.40
546;DHT22;259;53.304;9.816;2023-04-16T05:07:20;12.40;72.40
546;DHT22;259;53.304;9.816;2023-04-16T05:09:46;12.30;72.40
546;DHT22;259;53.304;9.816;2023-04-16T05:12:11;12.40;72.40
546;DHT22;259;53.304;9.816;2023-04-16T05:14:37;12.30;72.40
546;DHT22;259;53.304;9.816;2023-04-16T05:17:03;12.30;72.30
546;DHT22;259;53.304;9.816;2023-04-16T05:19:28;12.30;72.30
546;DHT22;259;53.304;9.816;2023-04-16T05:21:54;12.30;72.30
546;DHT22;259;53.304;9.816;2023-04-16T05:24:21;12.30;72.20
546;DHT22;259;53.304;9.816;2023-04-16T05:26:46;12.30;72.40
546;DHT22;259;53.304;9.816;2023-04-16T05:29:12;12.30;72.30
546;DHT22;259;53.304;9.816;2023-04-16T05:31:38;12.30;72.50
546;DHT22;259;53.304;9.816;2023-04-16T05:34:03;12.30;72.30
546;DHT22;259;53.304;9.816;2023-04-16T05:36:29;12.30;72.30
546;DHT22;259;53.304;9.816;2023-04-16T05:38:55;12.30;72.30
546;DHT22;259;53.304;9.816;2023-04-16T05:41:20;12.30;72.20
546;DHT22;259;53.304;9.816;2023-04-16T05:43:46;12.30;72.30
546;DHT22;259;53.304;9.816;2023-04-16T05:46:11;12.30;72.30
546;DHT22;259;53.304;9.816;2023-04-16T05:48:37;12.30;72.30
546;DHT22;259;53.304;9.816;2023-04-16T05:51:03;12.20;72.30
546;DHT22;259;53.304;9.816;2023-04-16T05:53:29;12.30;72.30
546;DHT22;259;53.304;9.816;2023-04-16T05:55:54;12.20;72.30
546;DHT22;259;53.304;9.816;2023-04-16T05:58:20;12.20;72.30
546;DHT22;259;53.304;9.816;2023-04-16T06:00:46;12.20;72.30
546;DHT22;259;53.304;9.816;2023-04-16T06:03:11;12.20;72.30
546;DHT22;259;53.304;9.816;2023-04-16T06:05:37;12.20;72.20
546;DHT22;259;53.304;9.816;2023-04-16T06:08:03;12.20;72.20
546;DHT22;259;53.304;9.816;2023-04-16T06:10:28;12.20;72.30
546;DHT22;259;53.304;9.816;2023-04-16T06:12:54;12.20;72.30
546;DHT22;259;53.304;9.816;2023-04-16T06:15:20;12.20;72.40
546;DHT22;259;53.304;9.816;2023-04-16T06:17:46;12.20;72.30
546;DHT22;259;53.304;9.816;2023-04-16T06:20:12;12.20;72.30
546;DHT22;259;53.304;9.816;2023-04-16T06:22:37;12.20;72.30
546;DHT22;259;53.304;9.816;2023-04-16T06:25:03;12.20;72.50
546;DHT22;259;53.304;9.816;2023-04-16T06:27:30;12.20;72.40
546;DHT22;259;53.304;9.816;2023-04-16T06:29:56;12.20;72.30
546;DHT22;259;53.304;9.816;2023-04-16T06:32:22;12.10;72.20
546;DHT22;259;53.304;9.816;2023-04-16T06:34:48;12.10;72.30
546;DHT22;259;53.304;9.816;2023-04-16T06:37:14;12.20;72.30
546;DHT22;259;53.304;9.816;2023-04-16T06:39:40;12.20;72.40
546;DHT22;259;53.304;9.816;2023-04-16T06:42:06;12.10;72.30
546;DHT22;259;53.304;9.816;2023-04-16T06:44:32;12.20;72.30
546;DHT22;259;53.304;9.816;2023-04-16T06:46:57;12.10;72.10
546;DHT22;259;53.304;9.816;2023-04-16T06:49:23;12.10;72.20
546;DHT22;259;53.304;9.816;2023-04-16T06:51:49;12.10;72.10
546;DHT22;259;53.304;9.816;2023-04-16T06:54:15;12.10;72.20
546;DHT22;259;53.304;9.816;2023-04-16T06:56:41;12.10;72.40
546;DHT22;259;53.304;9.816;2023-04-16T06:59:06;12.10;72.40
546;DHT22;259;53.304;9.816;2023-04-16T07:01:32;12.10;72.60
546;DHT22;259;53.304;9.816;2023-04-16T07:03:58;12.10;72.70
546;DHT22;259;53.304;9.816;2023-04-16T07:06:24;12.10;72.90
546;DHT22;259;53.304;9.816;2023-04-16T07:08:51;12.10;72.90
546;DHT22;259;53.304;9.816;2023-04-16T07:11:17;12.10;73.00
546;DHT22;259;53.304;9.816;2023-04-16T07:13:43;12.10;73.00
546;DHT22;259;53.304;9.816;2023-04-16T07:16:09;12.10;72.80
546;DHT22;259;53.304;9.816;2023-04-16T07:18:34;12.10;72.80
546;DHT22;259;53.304;9.816;2023-04-16T07:21:00;12.10;73.10
546;DHT22;259;53.304;9.816;2023-04-16T07:23:26;12.10;72.80
546;DHT22;259;53.304;9.816;2023-04-16T07:25:52;12.10;72.70
546;DHT22;259;53.304;9.816;2023-04-16T07:28:18;12.10;72.70
546;DHT22;259;53.304;9.816;2023-04-16T07:30:44;12.10;72.50
546;DHT22;259;53.304;9.816;2023-04-16T07:33:10;12.10;72.50
546;DHT22;259;53.304;9.816;2023-04-16T07:35:36;12.10;72.50
546;DHT22;259;53.304;9.816;2023-04-16T07:38:01;12.10;72.50
546;DHT22;259;53.304;9.816;2023-04-16T07:40:27;12.10;72.50
546;DHT22;259;53.304;9.816;2023-04-16T07:42:54;12.10;72.40
546;DHT22;259;53.304;9.816;2023-04-16T07:45:20;12.10;72.50
546;DHT22;259;53.304;9.816;2023-04-16T07:47:46;12.10;72.60
546;DHT22;259;53.304;9.816;2023-04-16T07:50:12;12.10;72.50
546;DHT22;259;53.304;9.816;2023-04-16T07:52:38;12.10;72.50
546;DHT22;259;53.304;9.816;2023-04-16T07:55:06;12.10;72.30
546;DHT22;259;53.304;9.816;2023-04-16T07:57:33;12.10;72.50
546;DHT22;259;53.304;9.816;2023-04-16T07:59:58;12.10;72.30
546;DHT22;259;53.304;9.816;2023-04-16T08:02:26;12.10;72.50
546;DHT22;259;53.304;9.816;2023-04-16T08:04:52;12.10;73.20
546;DHT22;259;53.304;9.816;2023-04-16T08:07:17;12.10;72.50
546;DHT22;259;53.304;9.816;2023-04-16T08:10:01;12.10;72.30
546;DHT22;259;53.304;9.816;2023-04-16T08:12:28;12.10;72.30
546;DHT22;259;53.304;9.816;2023-04-16T08:14:53;12.10;72.30
546;DHT22;259;53.304;9.816;2023-04-16T08:17:19;12.10;72.30
546;DHT22;259;53.304;9.816;2023-04-16T08:19:45;12.10;72.30
546;DHT22;259;53.304;9.816;2023-04-16T08:22:11;12.10;72.30
546;DHT22;259;53.304;9.816;2023-04-16T08:24:37;12.10;72.30
546;DHT22;259;53.304;9.816;2023-04-16T08:27:03;12.10;72.30
546;DHT22;259;53.304;9.816;2023-04-16T08:29:29;12.10;72.30
546;DHT22;259;53.304;9.816;2023-04-16T08:31:55;12.10;72.20
546;DHT22;259;53.304;9.816;2023-04-16T08:34:21;12.10;72.20
546;DHT22;259;53.304;9.816;2023-04-16T08:36:47;12.10;72.30
546;DHT22;259;53.304;9.816;2023-04-16T08:39:13;12.10;72.30
546;DHT22;259;53.304;9.816;2023-04-16T08:41:42;12.10;73.10
546;DHT22;259;53.304;9.816;2023-04-16T08:44:17;12.10;72.30
546;DHT22;259;53.304;9.816;2023-04-16T08:46:45;12.10;72.30
546;DHT22;259;53.304;9.816;2023-04-16T08:49:15;12.10;72.50
546;DHT22;259;53.304;9.816;2023-04-16T08:51:55;12.10;72.40
546;DHT22;259;53.304;9.816;2023-04-16T08:54:33;12.10;72.30
546;DHT22;259;53.304;9.816;2023-04-16T08:57:05;12.10;72.30
546;DHT22;259;53.304;9.816;2023-04-16T08:59:32;12.10;72.40
546;DHT22;259;53.304;9.816;2023-04-16T09:01:59;12.10;72.40
546;DHT22;259;53.304;9.816;2023-04-16T09:04:26;12.10;72.50
546;DHT22;259;53.304;9.816;2023-04-16T09:06:54;12.10;72.50
546;DHT22;259;53.304;9.816;2023-04-16T09:09:25;12.10;72.40
546;DHT22;259;53.304;9.816;2023-04-16T09:11:52;12.10;72.50
546;DHT22;259;53.304;9.816;2023-04-16T09:14:18;12.10;72.50
546;DHT22;259;53.304;9.816;2023-04-16T09:16:45;12.10;72.50
546;DHT22;259;53.304;9.816;2023-04-16T09:19:14;12.10;72.40
546;DHT22;259;53.304;9.816;2023-04-16T09:21:41;12.10;72.50
546;DHT22;259;53.304;9.816;2023-04-16T09:24:08;12.10;72.50
546;DHT22;259;53.304;9.816;2023-04-16T09:26:35;12.10;72.50
546;DHT22;259;53.304;9.816;2023-04-16T09:29:01;12.10;72.50
546;DHT22;259;53.304;9.816;2023-04-16T09:31:27;12.10;72.50
546;DHT22;259;53.304;9.816;2023-04-16T09:34:06;12.10;72.50
546;DHT22;259;53.304;9.816;2023-04-16T09:36:34;12.10;72.50
546;DHT22;259;53.304;9.816;2023-04-16T09:39:01;12.10;72.60
546;DHT22;259;53.304;9.816;2023-04-16T09:41:30;12.10;72.50
546;DHT22;259;53.304;9.816;2023-04-16T09:44:01;12.10;72.50
546;DHT22;259;53.304;9.816;2023-04-16T09:46:34;12.10;72.50
546;DHT22;259;53.304;9.816;2023-04-16T09:49:14;12.10;72.40
546;DHT22;259;53.304;9.816;2023-04-16T09:51:42;12.10;72.50
546;DHT22;259;53.304;9.816;2023-04-16T09:54:10;12.10;72.40
546;DHT22;259;53.304;9.816;2023-04-16T09:56:40;12.10;72.40
546;DHT22;259;53.304;9.816;2023-04-16T09:59:11;12.10;72.50
546;DHT22;259;53.304;9.816;2023-04-16T10:01:49;12.10;72.50
546;DHT22;259;53.304;9.816;2023-04-16T10:04:17;12.10;72.60
546;DHT22;259;53.304;9.816;2023-04-16T10:06:43;12.10;72.60
546;DHT22;259;53.304;9.816;2023-04-16T10:09:11;12.10;72.60
546;DHT22;259;53.304;9.816;2023-04-16T10:11:36;12.10;72.50
546;DHT22;259;53.304;9.816;2023-04-16T10:14:02;12.10;72.50
546;DHT22;259;53.304;9.816;2023-04-16T10:16:29;12.10;72.50
546;DHT22;259;53.304;9.816;2023-04-16T10:18:55;12.10;72.40
546;DHT22;259;53.304;9.816;2023-04-16T10:21:21;12.10;72.40
546;DHT22;259;53.304;9.816;2023-04-16T10:23:47;12.10;72.50
546;DHT22;259;53.304;9.816;2023-04-16T10:26:17;12.10;72.40
546;DHT22;259;53.304;9.816;2023-04-16T10:28:44;12.10;72.50
546;DHT22;259;53.304;9.816;2023-04-16T10:31:10;12.10;72.50
546;DHT22;259;53.304;9.816;2023-04-16T10:33:39;12.10;72.50
546;DHT22;259;53.304;9.816;2023-04-16T10:36:26;12.10;72.50
546;DHT22;259;53.304;9.816;2023-04-16T10:38:56;12.10;72.60
546;DHT22;259;53.304;9.816;2023-04-16T10:41:24;12.10;72.50
546;DHT22;259;53.304;9.816;2023-04-16T10:44:03;12.10;72.50
546;DHT22;259;53.304;9.816;2023-04-16T10:46:40;12.10;72.60
546;DHT22;259;53.304;9.816;2023-04-16T10:51:41;12.10;72.60
546;DHT22;259;53.304;9.816;2023-04-16T10:56:39;12.10;72.60
546;DHT22;259;53.304;9.816;2023-04-16T10:59:06;12.10;72.60
546;DHT22;259;53.304;9.816;2023-04-16T11:01:35;12.10;72.70
546;DHT22;259;53.304;9.816;2023-04-16T11:15:15;12.10;72.70
546;DHT22;259;53.304;9.816;2023-04-16T11:17:50;12.10;72.70
546;DHT22;259;53.304;9.816;2023-04-16T11:20:24;12.10;72.60
546;DHT22;259;53.304;9.816;2023-04-16T11:22:53;12.10;72.60
546;DHT22;259;53.304;9.816;2023-04-16T11:25:21;12.10;72.80
546;DHT22;259;53.304;9.816;2023-04-16T11:27:48;12.10;73.00
546;DHT22;259;53.304;9.816;2023-04-16T11:30:15;12.10;73.00
546;DHT22;259;53.304;9.816;2023-04-16T11:32:43;12.20;73.00
546;DHT22;259;53.304;9.816;2023-04-16T11:35:14;12.20;73.10
546;DHT22;259;53.304;9.816;2023-04-16T11:37:41;12.20;73.30
546;DHT22;259;53.304;9.816;2023-04-16T11:40:08;12.20;73.10
546;DHT22;259;53.304;9.816;2023-04-16T11:42:35;12.20;73.20
546;DHT22;259;53.304;9.816;2023-04-16T11:45:02;12.20;73.20
546;DHT22;259;53.304;9.816;2023-04-16T11:47:29;12.20;73.10
546;DHT22;259;53.304;9.816;2023-04-16T11:49:56;12.20;73.10
546;DHT22;259;53.304;9.816;2023-04-16T11:52:30;12.20;73.20
546;DHT22;259;53.304;9.816;2023-04-16T11:54:57;12.20;73.10
546;DHT22;259;53.304;9.816;2023-04-16T11:57:28;12.20;73.20
546;DHT22;259;53.304;9.816;2023-04-16T11:59:56;12.20;73.10
546;DHT22;259;53.304;9.816;2023-04-16T12:02:44;12.20;73.10
546;DHT22;259;53.304;9.816;2023-04-16T12:05:32;12.20;73.10
546;DHT22;259;53.304;9.816;2023-04-16T12:08:01;12.20;73.20
546;DHT22;259;53.304;9.816;2023-04-16T12:10:28;12.20;73.30
546;DHT22;259;53.304;9.816;2023-04-16T12:13:09;12.20;73.40
546;DHT22;259;53.304;9.816;2023-04-16T12:16:06;12.20;73.30
546;DHT22;259;53.304;9.816;2023-04-16T12:18:58;12.20;73.40
546;DHT22;259;53.304;9.816;2023-04-16T12:21:24;12.20;73.40
546;DHT22;259;53.304;9.816;2023-04-16T12:23:52;12.20;73.40
546;DHT22;259;53.304;9.816;2023-04-16T12:26:18;12.20;73.40
546;DHT22;259;53.304;9.816;2023-04-16T12:28:43;12.20;73.30
546;DHT22;259;53.304;9.816;2023-04-16T12:31:09;12.20;73.30
546;DHT22;259;53.304;9.816;2023-04-16T12:33:35;12.20;73.40
546;DHT22;259;53.304;9.816;2023-04-16T12:36:18;12.20;73.40
546;DHT22;259;53.304;9.816;2023-04-16T12:38:44;12.20;73.30
546;DHT22;259;53.304;9.816;2023-04-16T12:41:10;12.20;73.30
546;DHT22;259;53.304;9.816;2023-04-16T12:43:36;12.20;73.40
546;DHT22;259;53.304;9.816;2023-04-16T12:46:01;12.20;73.30
546;DHT22;259;53.304;9.816;2023-04-16T12:48:27;12.20;73.20
546;DHT22;259;53.304;9.816;2023-04-16T12:50:53;12.20;73.30
546;DHT22;259;53.304;9.816;2023-04-16T12:53:19;12.20;73.40
546;DHT22;259;53.304;9.816;2023-04-16T12:55:45;12.20;73.30
546;DHT22;259;53.304;9.816;2023-04-16T12:58:10;12.20;73.40
546;DHT22;259;53.304;9.816;2023-04-16T13:00:36;12.20;73.30
546;DHT22;259;53.304;9.816;2023-04-16T13:03:02;12.20;73.40
546;DHT22;259;53.304;9.816;2023-04-16T13:05:27;12.20;73.30
546;DHT22;259;53.304;9.816;2023-04-16T13:07:53;12.30;73.40
546;DHT22;259;53.304;9.816;2023-04-16T13:10:20;12.30;73.50
546;DHT22;259;53.304;9.816;2023-04-16T13:12:46;12.30;73.50
546;DHT22;259;53.304;9.816;2023-04-16T13:15:11;12.30;73.50
546;DHT22;259;53.304;9.816;2023-04-16T13:17:37;12.30;73.50
546;DHT22;259;53.304;9.816;2023-04-16T13:20:03;12.30;73.40
546;DHT22;259;53.304;9.816;2023-04-16T13:22:29;12.30;73.40
546;DHT22;259;53.304;9.816;2023-04-16T13:24:55;12.30;73.40
546;DHT22;259;53.304;9.816;2023-04-16T13:27:21;12.30;73.40
546;DHT22;259;53.304;9.816;2023-04-16T13:29:47;12.30;73.30
546;DHT22;259;53.304;9.816;2023-04-16T13:32:12;12.30;73.30
546;DHT22;259;53.304;9.816;2023-04-16T13:34:39;12.30;73.30
546;DHT22;259;53.304;9.816;2023-04-16T13:37:04;12.30;73.30
546;DHT22;259;53.304;9.816;2023-04-16T13:39:30;12.30;73.30
546;DHT22;259;53.304;9.816;2023-04-16T13:41:56;12.30;73.30
546;DHT22;259;53.304;9.816;2023-04-16T13:44:22;12.30;73.30
546;DHT22;259;53.304;9.816;2023-04-16T13:46:47;12.30;73.30
546;DHT22;259;53.304;9.816;2023-04-16T13:49:13;12.30;73.30
546;DHT22;259;53.304;9.816;2023-04-16T13:51:42;12.30;73.20
546;DHT22;259;53.304;9.816;2023-04-16T13:54:08;12.30;73.30
546;DHT22;259;53.304;9.816;2023-04-16T13:56:34;12.30;73.20
546;DHT22;259;53.304;9.816;2023-04-16T13:59:00;12.30;73.30
546;DHT22;259;53.304;9.816;2023-04-16T14:01:26;12.30;73.30
546;DHT22;259;53.304;9.816;2023-04-16T14:03:52;12.40;73.40
546;DHT22;259;53.304;9.816;2023-04-16T14:06:18;12.40;74.30
546;DHT22;259;53.304;9.816;2023-04-16T14:08:44;12.40;73.60
546;DHT22;259;53.304;9.816;2023-04-16T14:11:10;12.40;73.70
546;DHT22;259;53.304;9.816;2023-04-16T14:13:36;12.30;73.60
546;DHT22;259;53.304;9.816;2023-04-16T14:16:02;12.40;73.60
546;DHT22;259;53.304;9.816;2023-04-16T14:18:28;12.40;73.60
546;DHT22;259;53.304;9.816;2023-04-16T14:20:53;12.40;73.70
546;DHT22;259;53.304;9.816;2023-04-16T14:23:19;12.40;73.60
546;DHT22;259;53.304;9.816;2023-04-16T14:25:45;12.40;73.60
546;DHT22;259;53.304;9.816;2023-04-16T14:28:10;12.40;73.60
546;DHT22;259;53.304;9.816;2023-04-16T14:30:36;12.40;73.70
546;DHT22;259;53.304;9.816;2023-04-16T14:33:04;12.40;73.70
546;DHT22;259;53.304;9.816;2023-04-16T14:35:30;12.40;73.70
546;DHT22;259;53.304;9.816;2023-04-16T14:37:57;12.40;73.70
546;DHT22;259;53.304;9.816;2023-04-16T14:40:23;12.40;73.60
546;DHT22;259;53.304;9.816;2023-04-16T14:42:49;12.40;73.60
546;DHT22;259;53.304;9.816;2023-04-16T14:45:15;12.40;73.60
546;DHT22;259;53.304;9.816;2023-04-16T14:47:40;12.40;73.70
546;DHT22;259;53.304;9.816;2023-04-16T14:50:11;12.40;73.70
546;DHT22;259;53.304;9.816;2023-04-16T14:52:37;12.40;73.70
546;DHT22;259;53.304;9.816;2023-04-16T14:55:03;12.40;73.70
546;DHT22;259;53.304;9.816;2023-04-16T14:57:29;12.40;73.70
546;DHT22;259;53.304;9.816;2023-04-16T14:59:55;12.40;73.80
546;DHT22;259;53.304;9.816;2023-04-16T15:02:21;12.40;73.70
546;DHT22;259;53.304;9.816;2023-04-16T15:04:47;12.40;73.70
546;DHT22;259;53.304;9.816;2023-04-16T15:07:13;12.40;73.70
546;DHT22;259;53.304;9.816;2023-04-16T15:09:38;12.40;74.50
546;DHT22;259;53.304;9.816;2023-04-16T15:12:04;12.40;73.80
546;DHT22;259;53.304;9.816;2023-04-16T15:14:30;12.40;73.80
546;DHT22;259;53.304;9.816;2023-04-16T15:16:56;12.40;73.80
546;DHT22;259;53.304;9.816;2023-04-16T15:19:21;12.40;73.70
546;DHT22;259;53.304;9.816;2023-04-16T15:21:48;12.40;73.70
546;DHT22;259;53.304;9.816;2023-04-16T15:24:14;12.40;73.70
546;DHT22;259;53.304;9.816;2023-04-16T15:26:40;12.40;73.60
546;DHT22;259;53.304;9.816;2023-04-16T15:29:06;12.40;73.70
546;DHT22;259;53.304;9.816;2023-04-16T15:31:31;12.40;73.70
546;DHT22;259;53.304;9.816;2023-04-16T15:33:57;12.40;73.60
546;DHT22;259;53.304;9.816;2023-04-16T15:36:24;12.40;73.70
546;DHT22;259;53.304;9.816;2023-04-16T15:38:51;12.40;73.60
546;DHT22;259;53.304;9.816;2023-04-16T15:41:17;12.40;73.60
546;DHT22;259;53.304;9.816;2023-04-16T15:43:42;12.40;73.60
546;DHT22;259;53.304;9.816;2023-04-16T15:46:09;12.50;73.70
546;DHT22;259;53.304;9.816;2023-04-16T15:48:35;12.40;73.60
546;DHT22;259;53.304;9.816;2023-04-16T15:51:00;12.50;73.70
546;DHT22;259;53.304;9.816;2023-04-16T15:53:27;12.50;73.80
546;DHT22;259;53.304;9.816;2023-04-16T15:55:52;12.50;73.70
546;DHT22;259;53.304;9.816;2023-04-16T15:58:19;12.50;73.60
546;DHT22;259;53.304;9.816;2023-04-16T16:00:47;12.50;74.40
546;DHT22;259;53.304;9.816;2023-04-16T16:03:16;12.50;73.80
546;DHT22;259;53.304;9.816;2023-04-16T16:05:45;12.50;73.80
546;DHT22;259;53.304;9.816;2023-04-16T16:08:12;12.50;73.70
546;DHT22;259;53.304;9.816;2023-04-16T16:10:38;12.50;73.80
546;DHT22;259;53.304;9.816;2023-04-16T16:13:05;12.50;73.70
546;DHT22;259;53.304;9.816;2023-04-16T16:15:32;12.50;73.70
546;DHT22;259;53.304;9.816;2023-04-16T16:17:58;12.50;73.80
546;DHT22;259;53.304;9.816;2023-04-16T16:20:24;12.50;73.70
546;DHT22;259;53.304;9.816;2023-04-16T16:22:50;12.50;73.70
546;DHT22;259;53.304;9.816;2023-04-16T16:25:19;12.50;73.60
546;DHT22;259;53.304;9.816;2023-04-16T16:27:45;12.50;74.60
546;DHT22;259;53.304;9.816;2023-04-16T16:30:11;12.50;75.60
546;DHT22;259;53.304;9.816;2023-04-16T16:32:37;12.60;76.90
546;DHT22;259;53.304;9.816;2023-04-16T16:35:06;12.80;81.10
546;DHT22;259;53.304;9.816;2023-04-16T16:37:34;12.80;80.00
546;DHT22;259;53.304;9.816;2023-04-16T16:39:59;12.80;80.40
546;DHT22;259;53.304;9.816;2023-04-16T16:42:25;12.80;80.60
546;DHT22;259;53.304;9.816;2023-04-16T16:44:51;12.80;80.70
546;DHT22;259;53.304;9.816;2023-04-16T16:47:17;12.80;80.70
546;DHT22;259;53.304;9.816;2023-04-16T16:49:43;12.90;81.40